createdAt,value
2023-02-02T00:01:55.809Z,99960.35
2023-02-02T00:04:34.701Z,99960.48
2023-02-02T00:07:05.429Z,99965.82
2023-02-02T00:09:34.109Z,99959.11
2023-02-02T00:12:02.557Z,99957.03
2023-02-02T00:14:30.889Z,99952.62
2023-02-02T00:16:59.454Z,99958.42
2023-02-02T00:19:33.720Z,99957.26
2023-02-02T00:22:01.831Z,99956.59
2023-02-02T00:24:30.003Z,99955.20
2023-02-02T00:26:59.935Z,99947.85
2023-02-02T00:29:30.789Z,99965.49
2023-02-02T00:31:59.207Z,99968.38
2023-02-02T00:34:27.357Z,99961.94
2023-02-02T00:36:57.604Z,99960.48
2023-02-02T00:39:27.806Z,99972.76
2023-02-02T00:41:56.515Z,99963.69
2023-02-02T00:44:43.304Z,99964.08
2023-02-02T00:47:11.824Z,99960.58
2023-02-02T00:49:40.115Z,99947.59
2023-02-02T00:52:08.265Z,99959.10
2023-02-02T00:54:36.451Z,99953.27
2023-02-02T00:57:05.157Z,99952.33
2023-02-02T00:59:33.754Z,99951.15
2023-02-02T01:02:02.292Z,99951.88
2023-02-02T01:04:31.031Z,99950.85
2023-02-02T01:06:59.703Z,99948.04
2023-02-02T01:09:29.488Z,99947.80
2023-02-02T01:11:58.047Z,99926.70
2023-02-02T01:14:27.006Z,99942.56
2023-02-02T01:16:57.467Z,99942.26
2023-02-02T01:19:27.603Z,99943.30
2023-02-02T01:21:55.697Z,99942.61
2023-02-02T01:24:24.168Z,99941.01
2023-02-02T01:26:52.346Z,99940.89
2023-02-02T01:29:20.568Z,99924.05
2023-02-02T01:31:48.857Z,99938.84
2023-02-02T01:34:17.064Z,99920.58
2023-02-02T01:36:45.452Z,99936.09
2023-02-02T01:39:13.627Z,99933.73
2023-02-02T01:41:42.481Z,99933.36
2023-02-02T01:44:48.121Z,99932.16
2023-02-02T01:47:17.376Z,99934.52
2023-02-02T01:49:46.113Z,99935.82
2023-02-02T01:52:17.148Z,99935.75
2023-02-02T01:54:51.508Z,99934.89
2023-02-02T02:01:02.190Z,99926.89
2023-02-02T02:03:33.468Z,99931.23
2023-02-02T02:06:06.336Z,99927.63
2023-02-02T02:08:40.080Z,99928.98
2023-02-02T02:11:09.105Z,99929.16
2023-02-02T02:13:57.390Z,99929.33
2023-02-02T02:16:32.708Z,99928.77
2023-02-02T02:19:04.173Z,99916.02
2023-02-02T02:22:05.866Z,99932.45
2023-02-02T02:25:31.183Z,99927.39
2023-02-02T02:28:00.942Z,99929.70
2023-02-02T02:30:56.487Z,99925.52
2023-02-02T02:33:37.565Z,99929.58
2023-02-02T02:36:13.829Z,99928.48
2023-02-02T02:39:15.258Z,99929.77
2023-02-02T02:41:53.024Z,99927.45
2023-02-02T02:44:22.831Z,99927.97
2023-02-02T02:46:51.308Z,99928.40
2023-02-02T02:49:20.781Z,99925.14
2023-02-02T02:51:52.246Z,99923.67
2023-02-02T02:54:45.733Z,99924.52
2023-02-02T02:57:14.544Z,99927.40
2023-02-02T02:59:49.601Z,99927.63
2023-02-02T03:02:49.484Z,99929.27
2023-02-02T03:05:43.864Z,99931.39
2023-02-02T03:08:29.968Z,99928.14
2023-02-02T03:11:00.675Z,99933.48
2023-02-02T03:13:31.784Z,99934.26
2023-02-02T03:16:00.272Z,99934.17
2023-02-02T03:18:32.110Z,99927.09
2023-02-02T03:21:02.144Z,99912.89
2023-02-02T03:23:30.964Z,99928.42
2023-02-02T03:26:00.531Z,99923.33
2023-02-02T03:28:30.643Z,99925.11
2023-02-02T03:31:01.702Z,99928.45
2023-02-02T03:33:32.480Z,99930.69
2023-02-02T03:36:01.618Z,99928.05
2023-02-02T03:38:30.324Z,99932.42
2023-02-02T03:40:58.692Z,99931.12
2023-02-02T03:43:27.556Z,99926.71
2023-02-02T03:46:03.162Z,99926.08
2023-02-02T03:48:32.434Z,99928.98
2023-02-02T03:51:00.751Z,99932.88
2023-02-02T03:53:29.225Z,99933.52
2023-02-02T03:55:58.425Z,99931.34
2023-02-02T03:58:26.817Z,99930.64
2023-02-02T04:00:59.435Z,99930.80
2023-02-02T04:03:27.938Z,99929.60
2023-02-02T04:05:57.623Z,99931.80
2023-02-02T04:08:26.603Z,99931.97
2023-02-02T04:10:55.699Z,99935.23
2023-02-02T04:13:24.471Z,99939.16
2023-02-02T04:16:01.805Z,99945.70
2023-02-02T04:18:30.569Z,99947.32
2023-02-02T04:21:00.738Z,99950.11
2023-02-02T04:23:32.140Z,99951.81
2023-02-02T04:26:01.670Z,99951.94
2023-02-02T04:28:30.772Z,99953.84
2023-02-02T04:31:00.762Z,99955.52
2023-02-02T04:33:29.492Z,99945.27
2023-02-02T04:35:58.005Z,99960.52
2023-02-02T04:38:27.158Z,99966.19
2023-02-02T04:40:55.911Z,99966.10
2023-02-02T04:43:24.620Z,99961.25
2023-02-02T04:45:57.249Z,99961.60
2023-02-02T04:48:27.041Z,99947.71
2023-02-02T04:51:03.548Z,99967.06
2023-02-02T04:53:33.128Z,99969.05
2023-02-02T04:56:14.905Z,99971.50
2023-02-02T04:58:45.332Z,99975.14
2023-02-02T05:01:17.755Z,99976.38
2023-02-02T05:03:47.321Z,99978.15
2023-02-02T05:06:17.390Z,99982.64
2023-02-02T05:08:48.081Z,99981.50
2023-02-02T05:11:20.595Z,99983.54
2023-02-02T05:13:51.711Z,99986.40
2023-02-02T05:16:21.046Z,99993.80
2023-02-02T05:18:55.035Z,99975.63
2023-02-02T05:21:24.106Z,99998.07
2023-02-02T05:23:53.091Z,100001.91
2023-02-02T05:26:25.961Z,99994.46
2023-02-02T05:28:55.096Z,100007.20
2023-02-02T05:31:24.213Z,100004.80
2023-02-02T05:33:54.028Z,100008.60
2023-02-02T05:36:23.313Z,100013.23
2023-02-02T05:38:51.551Z,100008.48
2023-02-02T05:41:20.595Z,100009.34
2023-02-02T05:43:49.756Z,100012.56
2023-02-02T05:46:18.324Z,100009.42
2023-02-02T05:48:46.637Z,100018.19
2023-02-02T05:51:25.052Z,100020.20
2023-02-02T05:53:53.739Z,100022.48
2023-02-02T05:56:22.252Z,100025.62
2023-02-02T05:58:50.602Z,100032.16
2023-02-02T06:01:19.421Z,100035.25
2023-02-02T06:03:48.132Z,100039.61
2023-02-02T06:06:16.578Z,100041.96
2023-02-02T06:08:44.903Z,100045.20
2023-02-02T06:11:16.822Z,100048.94
2023-02-02T06:13:46.112Z,100053.55
2023-02-02T06:16:15.994Z,100057.70
2023-02-02T06:18:45.280Z,100058.70
2023-02-02T06:21:13.373Z,100056.82
2023-02-02T06:23:46.122Z,100059.71
2023-02-02T06:26:15.313Z,100062.14
2023-02-02T06:28:47.774Z,100064.08
2023-02-02T06:31:19.440Z,100067.38
2023-02-02T06:33:56.148Z,100070.07
2023-02-02T06:36:26.156Z,100073.52
2023-02-02T06:38:55.862Z,100081.52
2023-02-02T06:41:24.959Z,100087.35
2023-02-02T06:43:53.224Z,100083.95
2023-02-02T06:46:21.641Z,100091.77
2023-02-02T06:48:52.866Z,100091.69
2023-02-02T06:51:20.989Z,100096.30
2023-02-02T06:53:49.679Z,100099.38
2023-02-02T06:56:18.079Z,100098.34
2023-02-02T06:58:46.253Z,100098.96
2023-02-02T07:01:15.357Z,100098.80
2023-02-02T07:03:48.856Z,100100.50
2023-02-02T07:06:23.607Z,100103.48
2023-02-02T07:09:02.312Z,100110.11
2023-02-02T07:11:34.609Z,100112.48
2023-02-02T07:14:04.045Z,100114.50
2023-02-02T07:16:32.656Z,100091.27
2023-02-02T07:19:01.710Z,100120.58
2023-02-02T07:21:35.773Z,100128.77
2023-02-02T07:24:05.607Z,100132.73
2023-02-02T07:26:35.998Z,100126.98
2023-02-02T07:29:05.972Z,100142.11
2023-02-02T07:31:36.647Z,100149.64
2023-02-02T07:34:05.831Z,100153.16
2023-02-02T07:36:34.169Z,100158.59
2023-02-02T07:39:05.071Z,100160.31
2023-02-02T07:41:37.345Z,100163.92
2023-02-02T07:44:06.093Z,100173.29
2023-02-02T07:46:34.432Z,100177.23
2023-02-02T07:49:03.906Z,100188.65
2023-02-02T07:51:32.189Z,100196.13
2023-02-02T07:54:00.591Z,100206.25
2023-02-02T07:56:28.890Z,100217.29
2023-02-02T07:58:58.157Z,100225.73
2023-02-02T08:01:28.596Z,100233.92
2023-02-02T08:04:00.597Z,100246.58
2023-02-02T08:06:33.847Z,100254.48
2023-02-02T08:09:03.621Z,100258.31
2023-02-02T08:11:31.999Z,100272.88
2023-02-02T08:14:02.171Z,100289.70
2023-02-02T08:16:32.732Z,100299.05
2023-02-02T08:19:01.220Z,100302.34
2023-02-02T08:21:29.716Z,100305.77
2023-02-02T08:23:58.019Z,100314.05
2023-02-02T08:26:29.535Z,100283.35
2023-02-02T08:29:04.205Z,100325.25
2023-02-02T08:31:35.573Z,100337.39
2023-02-02T08:34:05.243Z,100340.23
2023-02-02T08:36:35.695Z,100344.71
2023-02-02T08:39:06.886Z,100349.81
2023-02-02T08:41:37.007Z,100355.23
2023-02-02T08:44:09.378Z,100358.70
2023-02-02T08:46:40.607Z,100363.11
2023-02-02T08:49:13.097Z,100365.96
2023-02-02T08:51:42.151Z,100373.27
2023-02-02T08:54:10.570Z,100378.14
2023-02-02T08:56:38.956Z,100384.10
2023-02-02T08:59:07.989Z,100391.11
2023-02-02T09:01:36.363Z,100398.55
2023-02-02T09:04:14.010Z,100403.45
2023-02-02T09:06:44.305Z,100405.04
2023-02-02T09:09:15.520Z,100410.42
2023-02-02T09:11:44.618Z,100414.14
2023-02-02T09:14:14.370Z,100418.95
2023-02-02T09:16:43.250Z,100421.80
2023-02-02T09:19:12.342Z,100424.20
2023-02-02T09:21:40.772Z,100425.89
2023-02-02T09:24:12.136Z,100429.52
2023-02-02T09:26:41.555Z,100438.79
2023-02-02T09:29:16.241Z,100442.65
2023-02-02T09:31:44.976Z,100442.59
2023-02-02T09:34:15.615Z,100417.98
2023-02-02T09:36:44.838Z,100448.88
2023-02-02T09:39:15.246Z,100449.95
2023-02-02T09:42:04.434Z,100458.41
2023-02-02T09:44:51.903Z,100452.74
2023-02-02T09:47:56.624Z,100471.10
2023-02-02T09:50:42.218Z,100463.23
2023-02-02T09:53:29.245Z,100483.88
2023-02-02T09:56:01.367Z,100483.84
2023-02-02T09:58:36.980Z,100486.24
2023-02-02T10:01:11.281Z,100486.63
2023-02-02T10:03:58.082Z,100492.89
2023-02-02T10:06:41.478Z,100502.64
2023-02-02T10:09:25.326Z,100507.30
2023-02-02T10:12:12.274Z,100510.84
2023-02-02T10:14:51.955Z,100518.35
2023-02-02T10:17:46.771Z,100520.45
2023-02-02T10:20:18.813Z,100515.69
2023-02-02T10:22:48.707Z,100531.39
2023-02-02T10:25:18.095Z,100537.38
2023-02-02T10:28:19.718Z,100538.44
2023-02-02T10:31:01.447Z,100541.45
2023-02-02T10:34:02.645Z,100546.77
2023-02-02T10:36:43.313Z,100549.59
2023-02-02T10:39:26.762Z,100559.03
2023-02-02T10:42:29.222Z,100565.47
2023-02-02T10:45:06.688Z,100570.84
2023-02-02T10:47:35.263Z,100577.11
2023-02-02T10:50:12.941Z,100587.30
2023-02-02T10:52:48.995Z,100590.63
2023-02-02T10:55:27.788Z,100588.47
2023-02-02T10:58:14.014Z,100599.27
2023-02-02T11:00:58.233Z,100605.98
2023-02-02T11:03:29.240Z,100616.91
2023-02-02T11:06:20.184Z,100622.20
2023-02-02T11:08:56.984Z,100626.56
2023-02-02T11:11:38.450Z,100632.19
2023-02-02T11:14:10.061Z,100637.27
2023-02-02T11:16:43.549Z,100640.14
2023-02-02T11:19:18.111Z,100634.77
2023-02-02T11:21:51.469Z,100643.65
2023-02-02T11:24:28.868Z,100645.08
2023-02-02T11:27:02.516Z,100654.38
2023-02-02T11:29:34.103Z,100665.82
2023-02-02T11:32:27.984Z,100679.34
2023-02-02T11:35:08.495Z,100687.42
2023-02-02T11:37:39.298Z,100688.41
2023-02-02T11:40:27.037Z,100694.66
2023-02-02T11:42:57.472Z,100694.75
2023-02-02T11:45:50.084Z,100691.85
2023-02-02T11:48:23.149Z,100692.21
2023-02-02T11:50:54.268Z,100691.69
2023-02-02T11:53:27.689Z,100692.06
2023-02-02T11:56:01.519Z,100697.45
2023-02-02T11:58:44.290Z,100704.71
2023-02-02T12:01:34.305Z,100711.73
2023-02-02T12:04:22.391Z,100718.95
2023-02-02T12:06:50.986Z,100726.07
2023-02-02T12:09:24.710Z,100732.31
2023-02-02T12:12:15.823Z,100738.08
2023-02-02T12:14:58.987Z,100740.52
2023-02-02T12:17:39.214Z,100740.20
2023-02-02T12:20:07.671Z,100751.83
2023-02-02T12:23:20.830Z,100753.59
2023-02-02T12:26:20.242Z,100761.02
2023-02-02T12:28:58.772Z,100767.32
2023-02-02T12:31:36.102Z,100759.14
2023-02-02T12:34:19.841Z,100775.60
2023-02-02T12:36:57.770Z,100780.77
2023-02-02T12:39:44.533Z,100784.25
2023-02-02T12:42:37.475Z,100785.95
2023-02-02T12:45:23.926Z,100790.17
2023-02-02T12:48:03.905Z,100790.98
2023-02-02T12:50:37.875Z,100798.25
2023-02-02T12:53:17.155Z,100795.09
2023-02-02T12:56:04.949Z,100801.10
2023-02-02T12:58:48.229Z,100807.98
2023-02-02T13:02:01.448Z,100811.62
2023-02-02T13:07:32.334Z,100818.40
2023-02-02T13:10:13.043Z,100829.02
2023-02-02T13:13:04.174Z,100836.05
2023-02-02T13:15:49.727Z,100833.67
2023-02-02T13:18:34.619Z,100864.32
2023-02-02T13:21:08.695Z,100873.89
2023-02-02T13:23:42.990Z,100887.02
2023-02-02T13:26:24.445Z,100889.61
2023-02-02T13:29:00.477Z,100891.08
2023-02-02T13:31:47.478Z,100898.73
2023-02-02T13:34:34.313Z,100903.54
2023-02-02T13:37:18.210Z,100907.21
2023-02-02T13:40:21.228Z,100891.60
2023-02-02T13:42:53.516Z,100891.35
2023-02-02T13:45:30.339Z,100907.76
2023-02-02T13:48:26.179Z,100912.89
2023-02-02T13:51:17.631Z,100929.80
2023-02-02T13:54:13.619Z,100932.48
2023-02-02T13:56:49.556Z,100937.98
2023-02-02T13:59:35.845Z,100950.36
2023-02-02T14:02:07.495Z,100956.59
2023-02-02T14:04:36.582Z,100952.55
2023-02-02T14:07:06.448Z,100966.11
2023-02-02T14:09:37.611Z,100970.45
2023-02-02T14:12:09.957Z,100971.77
2023-02-02T14:14:45.553Z,100980.96
2023-02-02T14:17:13.625Z,100969.41
2023-02-02T14:19:53.861Z,100988.33
2023-02-02T14:22:44.605Z,101004.48
2023-02-02T14:25:33.834Z,101013.05
2023-02-02T14:28:12.279Z,101018.52
2023-02-02T14:30:43.861Z,101023.91
2023-02-02T14:33:22.278Z,101025.89
2023-02-02T14:35:52.312Z,101023.18
2023-02-02T14:38:45.199Z,101028.73
2023-02-02T14:41:43.220Z,101041.95
2023-02-02T14:44:11.494Z,101051.05
2023-02-02T14:46:41.384Z,101053.60
2023-02-02T14:49:17.342Z,101072.86
2023-02-02T14:51:59.068Z,101089.17
2023-02-02T14:54:34.583Z,101100.45
2023-02-02T14:57:19.853Z,101111.35
2023-02-02T14:59:49.373Z,101122.58
2023-02-02T15:02:23.496Z,101140.02
2023-02-02T15:04:52.380Z,101148.43
2023-02-02T15:07:23.957Z,101134.39
2023-02-02T15:09:56.515Z,101165.53
2023-02-02T15:12:47.140Z,101138.41
2023-02-02T15:15:23.527Z,101181.67
2023-02-02T15:18:01.112Z,101185.97
2023-02-02T15:21:00.250Z,101198.31
2023-02-02T15:23:40.842Z,101203.68
2023-02-02T15:26:13.606Z,101208.41
2023-02-02T15:28:42.115Z,101209.63
2023-02-02T15:31:35.741Z,101212.09
2023-02-02T15:34:43.702Z,101228.59
2023-02-02T15:37:20.893Z,101232.71
2023-02-02T15:39:53.621Z,101236.84
2023-02-02T15:42:53.745Z,101226.17
2023-02-02T15:45:28.334Z,101234.93
2023-02-02T15:47:58.715Z,101257.78
2023-02-02T15:50:27.269Z,101266.85
2023-02-02T15:52:56.272Z,101277.48
2023-02-02T15:55:29.580Z,101264.48
2023-02-02T15:57:58.379Z,101290.19
2023-02-02T16:00:33.333Z,101275.15
2023-02-02T16:03:15.297Z,101306.04
2023-02-02T16:05:50.964Z,101317.57
2023-02-02T16:08:34.502Z,101305.30
2023-02-02T16:11:08.990Z,101325.73
2023-02-02T16:13:40.684Z,101327.20
2023-02-02T16:16:30.716Z,101340.63
2023-02-02T16:19:05.109Z,101354.73
2023-02-02T16:21:35.748Z,101357.55
2023-02-02T16:24:07.410Z,101350.36
2023-02-02T16:26:36.581Z,101367.86
2023-02-02T16:29:05.542Z,101367.20
2023-02-02T16:31:36.308Z,101375.83
2023-02-02T16:34:05.357Z,101383.41
2023-02-02T16:36:33.647Z,101390.98
2023-02-02T16:39:02.708Z,101391.89
2023-02-02T16:41:36.684Z,101395.77
2023-02-02T16:44:30.750Z,101397.69
2023-02-02T16:47:00.351Z,101387.38
2023-02-02T16:49:34.008Z,101408.60
2023-02-02T16:52:20.521Z,101419.70
2023-02-02T16:54:57.431Z,101425.86
2023-02-02T16:57:33.163Z,101432.96
2023-02-02T17:00:07.239Z,101442.45
2023-02-02T17:02:39.291Z,101455.07
2023-02-02T17:05:23.525Z,101453.61
2023-02-02T17:08:00.708Z,101459.83
2023-02-02T17:10:39.199Z,101469.71
2023-02-02T17:13:36.636Z,101474.23
2023-02-02T17:16:05.769Z,101488.23
2023-02-02T17:18:34.165Z,101503.31
2023-02-02T17:21:07.703Z,101502.13
2023-02-02T17:23:37.232Z,101502.52
2023-02-02T17:26:10.065Z,101501.49
2023-02-02T17:28:40.984Z,101491.91
2023-02-02T17:31:12.090Z,101511.00
2023-02-02T17:33:41.471Z,101515.52
2023-02-02T17:36:15.371Z,101527.67
2023-02-02T17:38:44.219Z,101533.52
2023-02-02T17:41:15.685Z,101536.77
2023-02-02T17:43:44.818Z,101536.75
2023-02-02T17:46:13.597Z,101542.61
2023-02-02T17:48:42.192Z,101533.63
2023-02-02T17:51:15.316Z,101552.65
2023-02-02T17:53:44.695Z,101556.27
2023-02-02T17:56:13.048Z,101564.38
2023-02-02T17:58:41.513Z,101574.64
2023-02-02T18:01:11.377Z,101580.27
2023-02-02T18:03:41.741Z,101580.17
2023-02-02T18:06:11.314Z,101582.78
2023-02-02T18:08:41.044Z,101574.86
2023-02-02T18:11:12.727Z,101576.89
2023-02-02T18:13:49.219Z,101580.08
2023-02-02T18:16:20.014Z,101585.40
2023-02-02T18:18:48.614Z,101596.55
2023-02-02T18:21:16.926Z,101599.48
2023-02-02T18:23:48.771Z,101604.63
2023-02-02T18:26:19.010Z,101607.91
2023-02-02T18:28:49.341Z,101614.99
2023-02-02T18:31:21.352Z,101617.70
2023-02-02T18:33:50.587Z,101623.70
2023-02-02T18:36:21.608Z,101631.38
2023-02-02T18:38:51.628Z,101635.45
2023-02-02T18:41:21.665Z,101645.10
2023-02-02T18:43:52.887Z,101647.02
2023-02-02T18:46:21.235Z,101647.02
2023-02-02T18:48:49.581Z,101651.83
2023-02-02T18:51:18.878Z,101656.84
2023-02-02T18:53:48.266Z,101658.33
2023-02-02T18:56:18.166Z,101658.32
2023-02-02T18:58:46.471Z,101660.31
2023-02-02T19:01:19.258Z,101673.13
2023-02-02T19:03:50.012Z,101678.73
2023-02-02T19:06:40.469Z,101680.98
2023-02-02T19:09:09.444Z,101691.33
2023-02-02T19:11:44.029Z,101696.33
2023-02-02T19:14:24.702Z,101694.61
2023-02-02T19:16:56.351Z,101696.15
2023-02-02T19:19:27.725Z,101695.61
2023-02-02T19:22:01.080Z,101694.33
2023-02-02T19:24:37.748Z,101699.50
2023-02-02T19:27:18.306Z,101707.27
2023-02-02T19:29:50.854Z,101715.86
2023-02-02T19:32:23.060Z,101713.86
2023-02-02T19:34:57.404Z,101714.98
2023-02-02T19:37:31.522Z,101720.14
2023-02-02T19:40:22.929Z,101723.40
2023-02-02T19:43:08.689Z,101723.88
2023-02-02T19:45:37.764Z,101719.52
2023-02-02T19:48:18.225Z,101718.83
2023-02-02T19:50:47.297Z,101718.06
2023-02-02T19:53:38.184Z,101714.05
2023-02-02T19:56:27.321Z,101711.30
2023-02-02T19:58:55.820Z,101705.66
2023-02-02T20:01:28.210Z,101708.67
2023-02-02T20:03:58.553Z,101716.90
2023-02-02T20:06:31.115Z,101724.44
2023-02-02T20:09:10.446Z,101735.88
2023-02-02T20:11:41.201Z,101724.28
2023-02-02T20:14:19.706Z,101757.44
2023-02-02T20:16:56.624Z,101758.51
2023-02-02T20:19:29.145Z,101755.87
2023-02-02T20:21:57.287Z,101757.60
2023-02-02T20:24:28.244Z,101760.81
2023-02-02T20:27:00.784Z,101761.94
2023-02-02T20:29:42.311Z,101760.74
2023-02-02T20:32:30.413Z,101764.02
2023-02-02T20:34:59.435Z,101765.21
2023-02-02T20:37:32.449Z,101760.54
2023-02-02T20:40:23.180Z,101746.73
2023-02-02T20:42:51.419Z,101736.91
2023-02-02T20:45:21.673Z,101772.90
2023-02-02T20:47:50.187Z,101776.70
2023-02-02T20:50:20.856Z,101781.39
2023-02-02T20:52:49.569Z,101791.74
2023-02-02T20:55:18.307Z,101794.59
2023-02-02T20:57:46.704Z,101795.54
2023-02-02T21:00:18.174Z,101796.02
2023-02-02T21:02:46.452Z,101796.63
2023-02-02T21:05:15.537Z,101798.36
2023-02-02T21:07:44.394Z,101797.41
2023-02-02T21:10:12.657Z,101797.59
2023-02-02T21:12:40.971Z,101802.88
2023-02-02T21:15:10.332Z,101806.50
2023-02-02T21:17:40.822Z,101806.31
2023-02-02T21:20:10.605Z,101800.48
2023-02-02T21:22:39.226Z,101790.55
2023-02-02T21:25:07.700Z,101805.09
2023-02-02T21:27:36.193Z,101808.86
2023-02-02T21:30:05.773Z,101813.29
2023-02-02T21:32:34.277Z,101814.80
2023-02-02T21:35:03.604Z,101826.98
2023-02-02T21:37:36.739Z,101832.02
2023-02-02T21:40:14.380Z,101826.56
2023-02-02T21:42:49.519Z,101843.91
2023-02-02T21:45:34.625Z,101844.31
2023-02-02T21:48:08.119Z,101843.64
2023-02-02T21:50:38.055Z,101842.77
2023-02-02T21:53:10.048Z,101849.23
2023-02-02T21:55:39.488Z,101854.39
2023-02-02T21:58:17.922Z,101846.02
2023-02-02T22:00:47.017Z,101867.00
2023-02-02T22:03:39.283Z,101860.52
2023-02-02T22:06:26.681Z,101885.90
2023-02-02T22:09:01.675Z,101888.41
2023-02-02T22:11:40.491Z,101889.06
2023-02-02T22:14:25.284Z,101897.45
2023-02-02T22:16:58.114Z,101901.98
2023-02-02T22:19:26.584Z,101900.27
2023-02-02T22:22:10.470Z,101896.96
2023-02-02T22:24:39.410Z,101900.48
2023-02-02T22:27:26.230Z,101897.83
2023-02-02T22:30:06.833Z,101891.71
2023-02-02T22:32:35.025Z,101889.45
2023-02-02T22:35:03.261Z,101891.59
2023-02-02T22:37:31.807Z,101895.10
2023-02-02T22:40:00.902Z,101890.03
2023-02-02T22:42:29.377Z,101885.59
2023-02-02T22:44:57.830Z,101890.27
2023-02-02T22:47:26.079Z,101887.46
2023-02-02T22:49:55.108Z,101883.96
2023-02-02T22:52:23.308Z,101883.98
2023-02-02T22:54:51.568Z,101888.27
2023-02-02T22:57:19.959Z,101893.11
2023-02-02T22:59:48.365Z,101886.69
2023-02-02T23:02:16.872Z,101887.19
2023-02-02T23:04:45.019Z,101889.92
2023-02-02T23:07:13.331Z,101892.52
2023-02-02T23:09:41.617Z,101873.81
2023-02-02T23:12:10.087Z,101892.23
2023-02-02T23:14:38.082Z,101894.54
2023-02-02T23:17:08.293Z,101894.56
2023-02-02T23:19:36.534Z,101896.97
2023-02-02T23:25:01.336Z,101906.56
2023-02-02T23:27:29.597Z,101917.73
2023-02-02T23:29:57.925Z,101914.63
2023-02-02T23:32:25.980Z,101914.84
2023-02-02T23:34:54.024Z,101914.83
2023-02-02T23:37:22.169Z,101914.34
2023-02-02T23:39:50.218Z,101915.87
2023-02-02T23:42:18.518Z,101916.39
2023-02-02T23:44:46.816Z,101921.29
2023-02-02T23:47:15.773Z,101917.44
2023-02-02T23:49:44.608Z,101918.98
2023-02-02T23:52:13.055Z,101922.31
2023-02-02T23:54:41.361Z,101924.13
2023-02-02T23:57:09.755Z,101918.91
2023-02-02T23:59:38.205Z,101915.08
